Time;durP1;ratioP1;P1;durP2;ratioP2;P2;SDS_P1;SDS_P2;PMS_P1;PMS_P2;Temp;Humidity;BMP_temperature;BMP_pressure;BME280_temperature;BME280_humidity;BME280_pressure;Samples;Min_cycle;Max_cycle;Signal;HPM_P1;HPM_P2
2022/08/26 00:00:24;;;;;;;15.38;4.07;;;;;;;;;;5035617;28;20481;-73
2022/08/26 00:02:50;;;;;;;14.98;3.80;;;;;;;;;;5040064;28;20115;-73
2022/08/26 00:05:16;;;;;;;10.20;4.55;;;;;;;;;;5034045;28;20125;-68
2022/08/26 00:07:42;;;;;;;12.13;3.95;;;;;;;;;;5017857;28;20028;-73
2022/08/26 00:10:10;;;;;;;10.90;3.80;;;;;;;;;;5038026;28;20033;-72
2022/08/26 00:12:37;;;;;;;12.55;3.88;;;;;;;;;;5043740;28;20021;-74
2022/08/26 00:15:03;;;;;;;11.20;3.80;;;;;;;;;;5037722;28;20035;-75
2022/08/26 00:17:29;;;;;;;14.73;3.97;;;;;;;;;;5038967;28;20109;-74
2022/08/26 00:19:56;;;;;;;17.92;3.72;;;;;;;;;;5034272;28;20483;-73
2022/08/26 00:22:22;;;;;;;9.82;3.45;;;;;;;;;;5019351;28;20031;-74
2022/08/26 00:24:48;;;;;;;15.43;4.03;;;;;;;;;;5016192;28;20042;-74
2022/08/26 00:27:14;;;;;;;12.13;3.63;;;;;;;;;;5040224;28;20025;-73
2022/08/26 00:29:40;;;;;;;15.20;3.42;;;;;;;;;;5015659;28;20890;-73
2022/08/26 00:32:06;;;;;;;13.38;3.72;;;;;;;;;;5036447;28;20056;-73
2022/08/26 00:34:33;;;;;;;11.20;3.35;;;;;;;;;;5015754;28;20053;-73
2022/08/26 00:36:59;;;;;;;11.85;2.80;;;;;;;;;;5041766;28;20289;-74
2022/08/26 00:39:25;;;;;;;12.35;3.00;;;;;;;;;;5015039;28;20029;-73
2022/08/26 00:41:51;;;;;;;11.57;3.30;;;;;;;;;;5035119;28;20033;-74
2022/08/26 00:44:18;;;;;;;10.02;3.20;;;;;;;;;;5035002;28;20041;-74
2022/08/26 00:46:45;;;;;;;19.65;3.70;;;;;;;;;;5035416;28;20028;-74
2022/08/26 00:49:21;;;;;;;15.32;3.25;;;;;;;;;;5035230;28;20025;-74
2022/08/26 00:51:52;;;;;;;11.82;3.42;;;;;;;;;;5033766;28;20036;-74
2022/08/26 00:54:19;;;;;;;12.23;3.10;;;;;;;;;;5029660;28;20052;-72
2022/08/26 00:56:48;;;;;;;15.57;3.13;;;;;;;;;;5039240;28;20029;-74
2022/08/26 00:59:15;;;;;;;12.55;3.47;;;;;;;;;;5034280;28;20025;-74
2022/08/26 01:01:41;;;;;;;13.50;3.40;;;;;;;;;;5036674;28;20068;-73
2022/08/26 01:04:08;;;;;;;10.07;3.13;;;;;;;;;;5031138;28;20041;-73
2022/08/26 01:06:34;;;;;;;11.52;2.88;;;;;;;;;;5032784;28;20115;-73
2022/08/26 01:09:00;;;;;;;16.50;3.05;;;;;;;;;;5009924;28;20029;-73
2022/08/26 01:11:27;;;;;;;14.07;2.70;;;;;;;;;;5033521;28;20090;-72
2022/08/26 01:13:55;;;;;;;12.45;2.92;;;;;;;;;;5019655;28;20132;-73
2022/08/26 01:16:26;;;;;;;10.32;2.78;;;;;;;;;;5034166;28;20087;-74
2022/08/26 01:18:54;;;;;;;9.23;3.03;;;;;;;;;;5035354;28;20025;-73
2022/08/26 01:21:39;;;;;;;15.73;2.50;;;;;;;;;;5029084;28;20223;-73
2022/08/26 01:24:06;;;;;;;8.82;2.40;;;;;;;;;;5032494;28;20624;-72
2022/08/26 01:26:33;;;;;;;9.65;2.88;;;;;;;;;;5035819;28;20520;-73
2022/08/26 01:29:01;;;;;;;9.90;2.30;;;;;;;;;;5034124;28;20037;-73
2022/08/26 01:31:30;;;;;;;11.55;2.78;;;;;;;;;;5030367;28;20022;-73
2022/08/26 01:34:17;;;;;;;10.13;2.53;;;;;;;;;;5035016;28;20033;-73
2022/08/26 01:36:43;;;;;;;9.77;2.20;;;;;;;;;;5036099;28;20501;-73
2022/08/26 01:39:10;;;;;;;13.15;2.28;;;;;;;;;;5031912;28;20482;-73
2022/08/26 01:41:37;;;;;;;13.43;2.72;;;;;;;;;;5036317;28;20219;-74
2022/08/26 01:44:07;;;;;;;15.23;2.50;;;;;;;;;;5033785;28;20045;-74
2022/08/26 01:46:33;;;;;;;10.30;2.47;;;;;;;;;;5034381;28;20042;-74
2022/08/26 01:49:03;;;;;;;13.10;2.58;;;;;;;;;;5023592;28;20029;-74
2022/08/26 01:51:30;;;;;;;12.68;3.40;;;;;;;;;;5036187;28;20053;-73
2022/08/26 01:53:56;;;;;;;13.32;2.53;;;;;;;;;;5018251;28;20039;-73
2022/08/26 01:56:23;;;;;;;15.02;2.67;;;;;;;;;;5039816;28;20061;-74
2022/08/26 01:58:54;;;;;;;9.23;2.38;;;;;;;;;;5032694;28;20029;-73
2022/08/26 02:01:21;;;;;;;13.52;2.40;;;;;;;;;;5033632;28;20022;-73
2022/08/26 02:03:53;;;;;;;9.90;2.30;;;;;;;;;;5029860;28;21420;-73
2022/08/26 02:06:20;;;;;;;13.05;2.15;;;;;;;;;;5019852;28;20103;-74
2022/08/26 02:08:48;;;;;;;10.52;2.78;;;;;;;;;;5034463;28;20112;-75
2022/08/26 02:11:15;;;;;;;16.70;2.65;;;;;;;;;;5031295;28;20025;-74
2022/08/26 02:13:43;;;;;;;11.73;2.58;;;;;;;;;;5034289;28;20103;-74
2022/08/26 02:16:10;;;;;;;16.17;1.92;;;;;;;;;;5035131;28;20494;-74
2022/08/26 02:18:38;;;;;;;13.32;2.60;;;;;;;;;;5034434;28;20053;-73
2022/08/26 02:21:04;;;;;;;10.40;2.47;;;;;;;;;;5030765;28;20498;-74
2022/08/26 02:23:30;;;;;;;9.07;2.50;;;;;;;;;;5036540;28;20028;-75
2022/08/26 02:26:04;;;;;;;13.32;2.03;;;;;;;;;;5016405;28;20045;-74
2022/08/26 02:28:33;;;;;;;9.57;1.70;;;;;;;;;;5036108;28;20035;-74
2022/08/26 02:30:59;;;;;;;9.60;2.50;;;;;;;;;;5039494;28;20025;-74
2022/08/26 02:33:27;;;;;;;7.95;1.65;;;;;;;;;;5037169;28;20498;-74
2022/08/26 02:35:53;;;;;;;18.83;2.67;;;;;;;;;;5036058;28;20021;-74
2022/08/26 02:38:19;;;;;;;10.38;1.92;;;;;;;;;;5033887;28;20563;-74
2022/08/26 02:40:45;;;;;;;12.50;2.38;;;;;;;;;;5039589;28;20474;-75
2022/08/26 02:43:11;;;;;;;7.13;2.30;;;;;;;;;;5017778;28;20031;-73
2022/08/26 02:45:39;;;;;;;9.05;1.80;;;;;;;;;;5036601;28;20091;-73
2022/08/26 02:48:10;;;;;;;13.80;2.10;;;;;;;;;;5018047;28;20073;-73
2022/08/26 02:50:36;;;;;;;9.90;1.92;;;;;;;;;;5035247;28;20069;-73
2022/08/26 02:53:03;;;;;;;14.32;2.65;;;;;;;;;;5038520;28;20036;-74
2022/08/26 02:55:30;;;;;;;13.98;2.72;;;;;;;;;;5040273;28;20541;-73
2022/08/26 02:57:56;;;;;;;11.55;2.90;;;;;;;;;;5038261;28;20037;-73
2022/08/26 03:00:22;;;;;;;5.80;1.85;;;;;;;;;;5016727;28;20148;-72
2022/08/26 03:02:49;;;;;;;11.32;2.45;;;;;;;;;;5035241;28;20130;-73
2022/08/26 03:05:16;;;;;;;11.63;2.30;;;;;;;;;;5038446;28;20025;-73
2022/08/26 03:07:42;;;;;;;8.57;1.95;;;;;;;;;;5022671;28;20029;-72
2022/08/26 03:10:11;;;;;;;7.82;1.77;;;;;;;;;;5034523;28;20115;-73
2022/08/26 03:12:37;;;;;;;11.90;2.08;;;;;;;;;;5038434;28;20025;-72
2022/08/26 03:15:04;;;;;;;7.75;1.90;;;;;;;;;;5038214;28;20099;-73
2022/08/26 03:17:30;;;;;;;10.10;2.17;;;;;;;;;;5035533;28;20022;-73
2022/08/26 03:19:56;;;;;;;12.90;2.17;;;;;;;;;;5025031;28;20537;-73
2022/08/26 03:22:22;;;;;;;14.20;2.75;;;;;;;;;;5017007;28;20496;-72
2022/08/26 03:24:48;;;;;;;12.95;2.20;;;;;;;;;;5020897;28;20022;-73
2022/08/26 03:27:15;;;;;;;10.85;2.20;;;;;;;;;;5039519;28;20040;-70
2022/08/26 03:32:25;;;;;;;14.00;1.92;;;;;;;;;;5038247;28;20045;-72
2022/08/26 03:34:51;;;;;;;7.00;1.80;;;;;;;;;;5035553;28;20033;-72
2022/08/26 03:37:18;;;;;;;12.13;2.13;;;;;;;;;;5018819;28;20029;-72
2022/08/26 03:39:44;;;;;;;11.13;2.03;;;;;;;;;;5040184;28;20041;-73
2022/08/26 03:42:10;;;;;;;6.82;1.90;;;;;;;;;;5034624;28;20116;-73
2022/08/26 03:44:36;;;;;;;12.27;2.15;;;;;;;;;;5039664;28;20045;-72
2022/08/26 03:47:03;;;;;;;9.18;1.77;;;;;;;;;;5039084;28;20033;-74
2022/08/26 03:49:30;;;;;;;10.82;2.28;;;;;;;;;;5038169;28;20032;-73
2022/08/26 03:51:57;;;;;;;7.82;1.80;;;;;;;;;;5040400;28;20044;-72
2022/08/26 03:54:23;;;;;;;10.90;1.80;;;;;;;;;;5030509;28;20462;-70
2022/08/26 03:56:49;;;;;;;7.20;1.70;;;;;;;;;;5038035;28;20091;-73
2022/08/26 03:59:15;;;;;;;8.68;1.85;;;;;;;;;;5008707;28;20079;-74
2022/08/26 04:01:41;;;;;;;15.93;2.78;;;;;;;;;;5042341;28;20120;-72
2022/08/26 04:04:07;;;;;;;9.10;1.88;;;;;;;;;;5038560;28;20037;-74
2022/08/26 04:06:37;;;;;;;4.97;1.40;;;;;;;;;;5037528;28;20052;-72
2022/08/26 04:09:05;;;;;;;11.25;2.70;;;;;;;;;;5038256;28;20040;-74
2022/08/26 04:11:34;;;;;;;10.02;2.42;;;;;;;;;;5041227;28;20025;-74
2022/08/26 04:14:01;;;;;;;5.13;1.50;;;;;;;;;;5036695;28;20114;-73
2022/08/26 04:16:28;;;;;;;11.18;1.98;;;;;;;;;;5039872;28;20037;-73
2022/08/26 04:18:55;;;;;;;11.13;2.63;;;;;;;;;;5008582;28;20093;-73
2022/08/26 04:21:21;;;;;;;8.35;1.80;;;;;;;;;;5036593;28;20562;-71
2022/08/26 04:23:48;;;;;;;8.15;1.50;;;;;;;;;;5036188;28;20123;-72
2022/08/26 04:26:14;;;;;;;6.88;1.55;;;;;;;;;;5048880;28;20517;-72
2022/08/26 04:28:40;;;;;;;6.78;1.63;;;;;;;;;;5037405;28;20057;-72
2022/08/26 04:31:09;;;;;;;5.40;1.60;;;;;;;;;;5039539;28;20029;-73
2022/08/26 04:33:35;;;;;;;9.93;1.70;;;;;;;;;;5037585;28;20032;-72
2022/08/26 04:36:04;;;;;;;10.27;3.08;;;;;;;;;;5034589;28;20025;-73
2022/08/26 04:38:30;;;;;;;8.80;1.77;;;;;;;;;;5033226;28;20506;-72
2022/08/26 04:40:57;;;;;;;13.43;1.75;;;;;;;;;;5040436;28;20045;-74
2022/08/26 04:43:29;;;;;;;8.50;1.88;;;;;;;;;;5039271;28;20021;-72
2022/08/26 04:45:56;;;;;;;10.25;1.85;;;;;;;;;;5033465;28;20508;-72
2022/08/26 04:48:22;;;;;;;12.60;2.65;;;;;;;;;;5059459;28;20119;-72
2022/08/26 04:50:48;;;;;;;6.65;1.70;;;;;;;;;;5059145;28;20036;-72
2022/08/26 04:53:14;;;;;;;6.93;1.73;;;;;;;;;;5049618;28;20047;-73
2022/08/26 04:55:40;;;;;;;8.40;1.92;;;;;;;;;;5057847;28;20025;-74
2022/08/26 04:58:07;;;;;;;12.00;2.22;;;;;;;;;;5052870;28;21766;-76
2022/08/26 05:00:34;;;;;;;13.85;2.25;;;;;;;;;;5053929;28;20214;-73
2022/08/26 05:03:00;;;;;;;8.45;1.98;;;;;;;;;;5049163;28;20048;-72
2022/08/26 05:05:26;;;;;;;18.58;2.20;;;;;;;;;;5054661;28;20190;-74
2022/08/26 05:07:52;;;;;;;7.35;1.63;;;;;;;;;;5050048;28;20587;-72
2022/08/26 05:10:18;;;;;;;13.68;2.38;;;;;;;;;;5062824;28;20033;-72
2022/08/26 05:12:44;;;;;;;9.80;2.13;;;;;;;;;;5063886;28;20087;-74
2022/08/26 05:15:11;;;;;;;15.35;2.88;;;;;;;;;;5051522;28;20060;-71
2022/08/26 05:17:37;;;;;;;16.17;2.13;;;;;;;;;;5054473;28;20468;-72
2022/08/26 05:20:05;;;;;;;17.90;2.05;;;;;;;;;;5055352;28;20037;-72
2022/08/26 05:22:31;;;;;;;10.60;2.17;;;;;;;;;;5053542;28;20036;-72
2022/08/26 05:24:57;;;;;;;13.88;1.88;;;;;;;;;;5060506;28;20464;-73
2022/08/26 05:27:23;;;;;;;14.25;2.58;;;;;;;;;;5056236;28;20033;-72
2022/08/26 05:29:49;;;;;;;10.73;1.90;;;;;;;;;;5049350;28;20025;-73
2022/08/26 05:32:15;;;;;;;17.85;2.13;;;;;;;;;;5057952;28;20469;-72
2022/08/26 05:34:41;;;;;;;12.85;1.70;;;;;;;;;;5054659;28;20032;-72
2022/08/26 05:37:07;;;;;;;12.45;1.55;;;;;;;;;;5053667;28;20033;-73
2022/08/26 05:39:33;;;;;;;15.90;2.33;;;;;;;;;;5049852;28;20482;-73
2022/08/26 05:41:59;;;;;;;10.45;2.15;;;;;;;;;;5049267;28;20512;-73
2022/08/26 05:44:25;;;;;;;13.10;3.13;;;;;;;;;;5059148;28;20024;-72
2022/08/26 05:46:51;;;;;;;11.27;1.92;;;;;;;;;;5057365;28;20049;-73
2022/08/26 05:49:17;;;;;;;7.75;1.77;;;;;;;;;;5049875;28;20033;-72
2022/08/26 05:51:45;;;;;;;8.95;1.65;;;;;;;;;;5058486;28;20081;-73
2022/08/26 05:54:11;;;;;;;14.15;1.83;;;;;;;;;;5058856;28;20359;-73
2022/08/26 05:56:37;;;;;;;9.82;2.05;;;;;;;;;;5050766;28;20056;-73
2022/08/26 05:59:03;;;;;;;11.65;1.73;;;;;;;;;;5052842;28;20025;-72
2022/08/26 06:01:29;;;;;;;18.50;1.88;;;;;;;;;;5065874;28;20035;-73
2022/08/26 06:03:57;;;;;;;18.70;2.75;;;;;;;;;;5061709;28;20032;-72
2022/08/26 06:06:25;;;;;;;14.02;1.95;;;;;;;;;;5060031;28;20019;-72
2022/08/26 06:08:51;;;;;;;17.63;2.15;;;;;;;;;;5060592;28;20593;-71
2022/08/26 06:11:18;;;;;;;12.00;1.65;;;;;;;;;;5057414;28;20043;-73
2022/08/26 06:13:44;;;;;;;8.25;1.85;;;;;;;;;;5054789;28;20499;-74
2022/08/26 06:16:13;;;;;;;10.20;1.63;;;;;;;;;;5059207;28;20020;-72
2022/08/26 06:18:41;;;;;;;10.63;1.65;;;;;;;;;;5059716;28;20025;-73
2022/08/26 06:21:21;;;;;;;16.38;1.80;;;;;;;;;;5070783;28;20037;-73
2022/08/26 06:26:34;;;;;;;13.80;1.60;;;;;;;;;;5057611;28;20060;-71
2022/08/26 06:29:00;;;;;;;7.97;1.30;;;;;;;;;;5054271;28;20555;-70
2022/08/26 06:31:26;;;;;;;14.43;2.72;;;;;;;;;;5055282;28;20025;-68
2022/08/26 06:33:52;;;;;;;10.18;1.70;;;;;;;;;;5056691;28;20025;-68
2022/08/26 06:36:20;;;;;;;11.73;1.83;;;;;;;;;;5053171;28;20120;-70
2022/08/26 06:38:47;;;;;;;15.23;1.90;;;;;;;;;;5059075;28;20044;-70
2022/08/26 06:41:13;;;;;;;10.48;1.42;;;;;;;;;;5060351;28;20056;-70
2022/08/26 06:43:39;;;;;;;9.23;1.42;;;;;;;;;;5053597;28;20314;-70
2022/08/26 06:46:07;;;;;;;11.77;1.70;;;;;;;;;;5044165;28;20073;-71
2022/08/26 06:48:33;;;;;;;7.22;1.33;;;;;;;;;;5036893;28;20038;-71
2022/08/26 06:51:02;;;;;;;16.63;1.60;;;;;;;;;;5032698;28;20033;-71
2022/08/26 06:53:28;;;;;;;7.45;1.25;;;;;;;;;;5040053;28;20022;-72
2022/08/26 06:55:54;;;;;;;13.73;1.60;;;;;;;;;;5032064;28;20026;-71
2022/08/26 06:58:20;;;;;;;8.70;1.65;;;;;;;;;;5033873;28;20116;-71
2022/08/26 07:00:46;;;;;;;11.00;1.55;;;;;;;;;;5037563;28;20112;-71
2022/08/26 07:03:12;;;;;;;17.40;1.65;;;;;;;;;;5034506;28;20112;-71
2022/08/26 07:05:39;;;;;;;13.40;1.88;;;;;;;;;;5035492;28;20320;-71
2022/08/26 07:08:05;;;;;;;11.52;2.28;;;;;;;;;;5033580;28;20084;-70
2022/08/26 07:10:31;;;;;;;24.00;2.80;;;;;;;;;;5037266;28;20490;-70
2022/08/26 07:12:57;;;;;;;13.07;1.60;;;;;;;;;;5022338;28;20044;-70
2022/08/26 07:15:24;;;;;;;13.10;2.03;;;;;;;;;;5036534;28;20403;-72
2022/08/26 07:17:49;;;;;;;12.10;2.03;;;;;;;;;;5010121;28;20040;-71
2022/08/26 07:20:16;;;;;;;17.60;2.17;;;;;;;;;;5033669;28;20044;-71
2022/08/26 07:22:42;;;;;;;12.10;2.55;;;;;;;;;;5040216;28;20102;-71
2022/08/26 07:25:08;;;;;;;9.63;1.15;;;;;;;;;;5039628;28;20037;-72
2022/08/26 07:27:36;;;;;;;11.95;1.50;;;;;;;;;;5020027;28;20045;-72
2022/08/26 07:30:04;;;;;;;10.55;1.90;;;;;;;;;;5037074;28;20080;-71
2022/08/26 07:32:31;;;;;;;9.15;1.13;;;;;;;;;;5038329;28;20109;-71
2022/08/26 07:34:57;;;;;;;9.20;1.90;;;;;;;;;;5036187;28;20033;-69
2022/08/26 07:37:23;;;;;;;7.10;1.48;;;;;;;;;;5040874;28;20551;-72
2022/08/26 07:39:49;;;;;;;8.93;1.63;;;;;;;;;;5020681;28;20036;-71
2022/08/26 07:42:15;;;;;;;6.93;1.20;;;;;;;;;;5021835;28;20509;-72
2022/08/26 07:44:42;;;;;;;6.13;1.40;;;;;;;;;;5034888;28;20021;-72
2022/08/26 07:47:09;;;;;;;8.15;1.27;;;;;;;;;;5032452;28;20033;-71
2022/08/26 07:49:38;;;;;;;10.75;1.63;;;;;;;;;;5035540;28;20029;-70
2022/08/26 07:52:04;;;;;;;10.30;1.55;;;;;;;;;;5033421;28;20026;-72
2022/08/26 07:54:30;;;;;;;11.25;1.40;;;;;;;;;;5037115;28;20451;-72
2022/08/26 07:56:57;;;;;;;10.05;1.38;;;;;;;;;;5018542;28;20406;-70
2022/08/26 07:59:23;;;;;;;8.10;0.98;;;;;;;;;;5036525;28;20045;-69
2022/08/26 08:01:49;;;;;;;15.73;1.55;;;;;;;;;;5021526;28;20158;-71
2022/08/26 08:04:17;;;;;;;9.60;1.40;;;;;;;;;;5037594;28;20030;-72
2022/08/26 08:06:43;;;;;;;5.93;1.00;;;;;;;;;;5041207;28;20077;-68
2022/08/26 08:09:10;;;;;;;7.10;1.30;;;;;;;;;;5035470;28;20029;-72
2022/08/26 08:11:36;;;;;;;6.97;1.52;;;;;;;;;;5041762;28;20029;-72
2022/08/26 08:14:02;;;;;;;9.90;1.35;;;;;;;;;;5036612;28;20021;-71
2022/08/26 08:16:29;;;;;;;8.32;1.20;;;;;;;;;;5013246;28;20036;-71
2022/08/26 08:18:55;;;;;;;9.10;1.13;;;;;;;;;;5034004;28;21283;-70
2022/08/26 08:21:22;;;;;;;9.88;1.20;;;;;;;;;;5037812;28;20083;-70
2022/08/26 08:23:48;;;;;;;7.97;1.73;;;;;;;;;;5037690;28;20022;-69
2022/08/26 08:26:14;;;;;;;9.55;1.50;;;;;;;;;;5016685;28;20167;-69
2022/08/26 08:28:40;;;;;;;9.57;1.30;;;;;;;;;;5037102;28;20029;-71
2022/08/26 08:31:06;;;;;;;7.60;1.27;;;;;;;;;;5034388;28;20030;-72
2022/08/26 08:33:33;;;;;;;7.15;1.05;;;;;;;;;;5040667;28;20028;-73
2022/08/26 08:35:59;;;;;;;8.73;1.00;;;;;;;;;;5037043;28;20056;-72
2022/08/26 08:38:26;;;;;;;8.07;1.42;;;;;;;;;;5036544;28;20052;-73
2022/08/26 08:40:52;;;;;;;10.05;1.40;;;;;;;;;;5049836;28;20098;-72
2022/08/26 08:43:51;;;;;;;10.73;1.10;;;;;;;;;;5042380;28;20045;-72
2022/08/26 08:46:18;;;;;;;7.53;1.20;;;;;;;;;;5019713;28;20044;-72
2022/08/26 08:48:47;;;;;;;13.50;1.55;;;;;;;;;;5055803;28;20068;-73
2022/08/26 08:51:15;;;;;;;9.38;1.17;;;;;;;;;;5061318;28;20025;-73
2022/08/26 08:53:43;;;;;;;9.48;2.13;;;;;;;;;;5053944;28;20039;-72
2022/08/26 08:56:25;;;;;;;10.95;1.30;;;;;;;;;;5053881;28;20024;-73
2022/08/26 08:58:53;;;;;;;8.43;1.40;;;;;;;;;;5055336;28;20028;-73
2022/08/26 09:01:21;;;;;;;9.73;1.30;;;;;;;;;;5053658;28;20028;-73
2022/08/26 09:03:47;;;;;;;8.35;1.00;;;;;;;;;;5049403;28;20036;-73
2022/08/26 09:06:17;;;;;;;6.80;1.52;;;;;;;;;;5054936;28;20366;-72
2022/08/26 09:08:45;;;;;;;16.25;2.13;;;;;;;;;;5058535;28;20057;-72
2022/08/26 09:11:12;;;;;;;6.55;1.30;;;;;;;;;;5049072;28;20032;-71
2022/08/26 09:13:39;;;;;;;12.38;1.65;;;;;;;;;;5049388;28;20021;-71
2022/08/26 09:16:08;;;;;;;5.38;1.23;;;;;;;;;;5052495;28;20021;-72
2022/08/26 09:18:40;;;;;;;6.95;1.17;;;;;;;;;;5055932;28;20063;-73
2022/08/26 09:21:08;;;;;;;5.18;1.00;;;;;;;;;;5054090;28;20463;-71
2022/08/26 09:23:35;;;;;;;5.30;1.05;;;;;;;;;;5053400;28;20037;-74
2022/08/26 09:26:03;;;;;;;5.47;1.15;;;;;;;;;;5055192;28;20036;-74
2022/08/26 09:28:31;;;;;;;4.00;0.80;;;;;;;;;;5051142;28;20063;-72
2022/08/26 09:31:06;;;;;;;11.10;1.52;;;;;;;;;;5055774;28;20780;-72
2022/08/26 09:33:32;;;;;;;11.43;1.15;;;;;;;;;;5055530;28;20017;-73
2022/08/26 09:36:37;;;;;;;20.67;1.60;;;;;;;;;;4854840;28;24006;-72
2022/08/26 09:39:04;;;;;;;7.03;0.88;;;;;;;;;;4776062;29;20061;-72
2022/08/26 09:41:31;;;;;;;6.18;0.90;;;;;;;;;;4844339;29;20042;-73
2022/08/26 09:44:03;;;;;;;18.80;1.27;;;;;;;;;;4866870;29;20678;-71
2022/08/26 09:46:31;;;;;;;7.05;0.98;;;;;;;;;;4909629;29;20071;-70
2022/08/26 09:49:17;;;;;;;13.60;1.83;;;;;;;;;;4923694;29;20506;-72
2022/08/26 09:51:43;;;;;;;12.73;1.83;;;;;;;;;;4903475;29;20084;-73
2022/08/26 09:54:23;;;;;;;10.20;1.90;;;;;;;;;;4906881;28;20032;-73
2022/08/26 09:56:51;;;;;;;6.15;1.27;;;;;;;;;;4922452;28;20038;-73
2022/08/26 09:59:28;;;;;;;9.05;1.10;;;;;;;;;;4910600;28;20157;-72
2022/08/26 10:01:54;;;;;;;5.00;1.05;;;;;;;;;;4899104;28;98250;-73
2022/08/26 10:04:25;;;;;;;6.38;0.80;;;;;;;;;;4948392;28;20138;-73
2022/08/26 10:06:55;;;;;;;9.45;1.10;;;;;;;;;;4947197;28;20015;-73
2022/08/26 10:09:21;;;;;;;;;;;;;;;;;;4984039;28;20034;-73
2022/08/26 10:11:50;;;;;;;8.35;0.93;;;;;;;;;;4987425;28;19916;-73
2022/08/26 10:14:16;;;;;;;9.10;1.45;;;;;;;;;;4985811;28;20031;-72
2022/08/26 10:17:08;;;;;;;7.38;1.10;;;;;;;;;;4993115;28;20022;-72
2022/08/26 10:19:36;;;;;;;10.02;1.30;;;;;;;;;;4984414;28;20050;-72
2022/08/26 10:22:06;;;;;;;7.60;1.15;;;;;;;;;;4989804;28;20092;-71
2022/08/26 10:24:44;;;;;;;14.40;1.67;;;;;;;;;;4985471;28;21121;-72
2022/08/26 10:27:16;;;;;;;6.22;1.00;;;;;;;;;;4988613;28;20129;-73
2022/08/26 10:29:43;;;;;;;11.88;1.08;;;;;;;;;;4988060;28;20077;-73
2022/08/26 10:32:16;;;;;;;15.05;1.35;;;;;;;;;;4990248;28;20535;-72
2022/08/26 10:34:42;;;;;;;6.93;0.95;;;;;;;;;;4984550;28;20491;-72
2022/08/26 10:37:19;;;;;;;5.90;0.95;;;;;;;;;;4984849;28;20027;-71
2022/08/26 10:39:49;;;;;;;9.20;1.55;;;;;;;;;;4984404;28;20030;-73
2022/08/26 10:42:27;;;;;;;5.95;0.95;;;;;;;;;;4985572;28;20487;-72
2022/08/26 10:44:55;;;;;;;8.70;1.50;;;;;;;;;;4991632;28;20080;-72
2022/08/26 10:47:30;;;;;;;19.58;1.90;;;;;;;;;;4992704;28;20069;-72
2022/08/26 10:49:58;;;;;;;10.18;1.20;;;;;;;;;;4990406;28;20030;-73
2022/08/26 10:52:33;;;;;;;7.78;1.00;;;;;;;;;;4988408;28;20022;-73
2022/08/26 10:55:03;;;;;;;5.55;0.85;;;;;;;;;;4990675;28;20120;-73
2022/08/26 10:57:35;;;;;;;5.43;0.90;;;;;;;;;;4985451;28;20030;-69
2022/08/26 11:02:53;;;;;;;12.63;1.40;;;;;;;;;;4985065;28;20052;-72
2022/08/26 11:05:22;;;;;;;8.05;1.30;;;;;;;;;;4984467;28;20045;-72
2022/08/26 11:07:54;;;;;;;6.13;1.20;;;;;;;;;;4989884;28;20500;-72
2022/08/26 11:10:21;;;;;;;6.20;1.08;;;;;;;;;;4983622;28;20189;-71
2022/08/26 11:12:49;;;;;;;9.27;1.10;;;;;;;;;;4985504;28;20023;-71
2022/08/26 11:15:21;;;;;;;4.28;1.02;;;;;;;;;;4984736;28;20026;-71
2022/08/26 11:17:58;;;;;;;7.30;1.20;;;;;;;;;;4986340;28;20036;-72
2022/08/26 11:20:30;;;;;;;7.55;1.13;;;;;;;;;;4987581;28;20100;-71
2022/08/26 11:23:16;;;;;;;7.68;1.60;;;;;;;;;;4986148;28;20042;-70
2022/08/26 11:25:57;;;;;;;12.95;1.92;;;;;;;;;;4989138;28;20480;-69
2022/08/26 11:28:43;;;;;;;12.40;1.60;;;;;;;;;;4970083;28;20034;-69
2022/08/26 11:31:33;;;;;;;7.30;1.50;;;;;;;;;;4982988;28;20062;-72
2022/08/26 11:34:00;;;;;;;6.93;1.70;;;;;;;;;;4986586;28;20048;-71
2022/08/26 11:36:36;;;;;;;9.52;2.08;;;;;;;;;;4982232;28;20094;-71
2022/08/26 11:39:04;;;;;;;8.73;1.65;;;;;;;;;;4982641;28;20041;-71
2022/08/26 11:41:31;;;;;;;6.72;1.50;;;;;;;;;;4989907;28;20064;-71
2022/08/26 11:43:58;;;;;;;9.90;1.73;;;;;;;;;;4990157;28;20042;-73
2022/08/26 11:46:34;;;;;;;15.57;2.20;;;;;;;;;;4986326;28;20411;-72
2022/08/26 11:49:01;;;;;;;8.05;1.40;;;;;;;;;;4983442;28;20073;-72
2022/08/26 11:51:30;;;;;;;11.43;1.50;;;;;;;;;;4985118;28;20023;-72
2022/08/26 11:54:13;;;;;;;7.85;1.50;;;;;;;;;;4985201;28;20038;-72
2022/08/26 11:56:40;;;;;;;8.35;1.23;;;;;;;;;;4985768;28;20026;-72
2022/08/26 11:59:11;;;;;;;10.48;2.85;;;;;;;;;;4974286;28;20381;-70
2022/08/26 12:01:42;;;;;;;7.22;1.63;;;;;;;;;;4992172;28;20027;-73
2022/08/26 12:04:17;;;;;;;13.43;2.13;;;;;;;;;;4972904;28;20113;-72
2022/08/26 12:06:47;;;;;;;10.90;1.90;;;;;;;;;;4993783;28;20038;-72
2022/08/26 12:09:19;;;;;;;8.27;1.40;;;;;;;;;;4993033;28;20491;-71
2022/08/26 12:11:45;;;;;;;5.22;1.38;;;;;;;;;;4989479;28;20042;-72
2022/08/26 12:14:38;;;;;;;7.57;1.42;;;;;;;;;;4978329;28;20054;-72
2022/08/26 12:17:18;;;;;;;11.57;2.20;;;;;;;;;;4953082;28;20514;-72
2022/08/26 12:19:44;;;;;;;7.20;1.80;;;;;;;;;;4986369;28;20030;-73
2022/08/26 12:22:26;;;;;;;8.23;1.40;;;;;;;;;;4988503;28;20484;-72
2022/08/26 12:25:00;;;;;;;6.70;1.48;;;;;;;;;;4987231;28;20106;-70
2022/08/26 12:27:28;;;;;;;10.40;2.20;;;;;;;;;;4982569;28;20645;-72
2022/08/26 12:30:01;;;;;;;14.40;1.60;;;;;;;;;;4968835;28;20038;-72
2022/08/26 12:32:27;;;;;;;8.57;1.42;;;;;;;;;;4984286;28;20133;-72
2022/08/26 12:34:53;;;;;;;8.00;1.58;;;;;;;;;;4987119;28;20041;-72
2022/08/26 12:37:26;;;;;;;7.75;1.95;;;;;;;;;;4985829;28;20033;-73
2022/08/26 12:39:52;;;;;;;9.55;1.58;;;;;;;;;;4987453;28;20483;-72
2022/08/26 12:42:18;;;;;;;7.07;1.30;;;;;;;;;;4986753;28;20035;-73
2022/08/26 12:44:49;;;;;;;7.40;1.27;;;;;;;;;;4986714;28;20022;-72
2022/08/26 12:47:15;;;;;;;11.93;1.55;;;;;;;;;;4971459;28;20038;-72
2022/08/26 12:49:42;;;;;;;32.03;1.92;;;;;;;;;;4988129;28;20026;-73
2022/08/26 12:52:29;;;;;;;6.30;1.20;;;;;;;;;;4989716;28;20022;-74
2022/08/26 12:55:01;;;;;;;7.53;1.50;;;;;;;;;;4985148;28;20110;-73
2022/08/26 12:57:35;;;;;;;7.50;1.33;;;;;;;;;;4986812;28;20046;-73
2022/08/26 13:00:20;;;;;;;7.45;1.40;;;;;;;;;;4966799;28;20086;-72
2022/08/26 13:02:46;;;;;;;8.65;1.50;;;;;;;;;;4985177;28;20109;-72
2022/08/26 13:05:38;;;;;;;6.78;1.38;;;;;;;;;;4983102;28;20023;-73
2022/08/26 13:08:07;;;;;;;5.45;1.30;;;;;;;;;;4979458;28;20054;-72
2022/08/26 13:10:35;;;;;;;5.47;1.38;;;;;;;;;;4985908;28;20125;-76
2022/08/26 13:13:01;;;;;;;10.80;1.63;;;;;;;;;;4964789;28;20054;-73
2022/08/26 13:15:27;;;;;;;11.35;2.05;;;;;;;;;;4968848;28;20066;-72
2022/08/26 13:17:53;;;;;;;21.38;2.05;;;;;;;;;;4985951;28;20036;-72
2022/08/26 13:20:19;;;;;;;5.80;1.48;;;;;;;;;;4983724;28;20042;-73
2022/08/26 13:22:45;;;;;;;9.77;1.65;;;;;;;;;;4984463;28;20619;-71
2022/08/26 13:25:11;;;;;;;9.05;1.60;;;;;;;;;;4984547;28;20496;-72
2022/08/26 13:27:37;;;;;;;10.32;1.70;;;;;;;;;;4967814;28;20038;-73
2022/08/26 13:30:04;;;;;;;8.88;1.67;;;;;;;;;;4981740;28;20055;-73
2022/08/26 13:32:30;;;;;;;6.70;1.80;;;;;;;;;;4974797;28;20048;-73
2022/08/26 13:34:56;;;;;;;10.45;1.55;;;;;;;;;;4962293;28;20042;-74
2022/08/26 13:37:23;;;;;;;9.70;1.92;;;;;;;;;;4990342;28;20061;-73
2022/08/26 13:39:49;;;;;;;9.82;1.92;;;;;;;;;;4990825;28;20062;-75
2022/08/26 13:42:16;;;;;;;7.45;2.00;;;;;;;;;;4991983;28;20510;-72
2022/08/26 13:44:43;;;;;;;4.15;1.35;;;;;;;;;;4975334;28;20524;-74
2022/08/26 13:47:10;;;;;;;6.65;1.40;;;;;;;;;;4983356;28;20035;-74
2022/08/26 13:49:36;;;;;;;10.85;1.80;;;;;;;;;;4983287;28;20034;-73
2022/08/26 13:52:02;;;;;;;7.80;1.60;;;;;;;;;;4991816;28;20039;-73
2022/08/26 13:54:28;;;;;;;15.13;1.67;;;;;;;;;;4965164;28;20511;-72
2022/08/26 13:56:54;;;;;;;16.45;2.75;;;;;;;;;;4980688;28;20022;-72
2022/08/26 13:59:20;;;;;;;11.88;1.60;;;;;;;;;;4990038;28;20036;-70
2022/08/26 14:01:46;;;;;;;12.40;1.60;;;;;;;;;;4971900;28;20035;-73
2022/08/26 14:04:13;;;;;;;12.45;1.73;;;;;;;;;;4970049;28;20093;-73
2022/08/26 14:06:39;;;;;;;7.75;1.60;;;;;;;;;;4989981;28;20053;-73
2022/08/26 14:09:05;;;;;;;11.35;2.35;;;;;;;;;;4969360;28;20483;-72
2022/08/26 14:11:31;;;;;;;12.07;1.80;;;;;;;;;;4969054;28;20062;-72
2022/08/26 14:13:57;;;;;;;11.85;1.80;;;;;;;;;;4983845;28;20485;-73
2022/08/26 14:16:25;;;;;;;8.75;1.60;;;;;;;;;;4985529;28;20065;-72
2022/08/26 14:18:51;;;;;;;9.02;1.40;;;;;;;;;;4988793;28;20053;-73
2022/08/26 14:21:18;;;;;;;10.60;2.00;;;;;;;;;;4988188;28;20480;-73
2022/08/26 14:23:44;;;;;;;10.95;1.60;;;;;;;;;;4988153;28;20030;-72
2022/08/26 14:26:10;;;;;;;9.80;1.90;;;;;;;;;;4991056;28;20034;-71
2022/08/26 14:28:36;;;;;;;8.73;1.70;;;;;;;;;;4989146;28;20089;-73
2022/08/26 14:31:04;;;;;;;7.25;2.08;;;;;;;;;;4968616;28;20086;-72
2022/08/26 14:33:31;;;;;;;14.40;1.77;;;;;;;;;;4987125;28;20033;-72
2022/08/26 14:36:26;;;;;;;8.82;1.58;;;;;;;;;;4988029;28;20488;-72
2022/08/26 14:38:44;;;;;;;9.88;1.65;;;;;;;;;;4987074;28;20050;-72
2022/08/26 14:41:10;;;;;;;7.93;2.03;;;;;;;;;;4969462;28;20523;-73
2022/08/26 14:43:37;;;;;;;12.88;1.65;;;;;;;;;;4983626;28;20022;-71
2022/08/26 14:46:03;;;;;;;9.50;1.77;;;;;;;;;;4986206;28;20539;-72
2022/08/26 14:48:29;;;;;;;13.30;2.15;;;;;;;;;;4987507;28;21294;-72
2022/08/26 14:50:55;;;;;;;29.63;2.97;;;;;;;;;;4985794;28;20141;-72